createdAt,value
2019-04-05T00:01:29.716Z,100.97
2019-04-05T00:04:00.196Z,101.83
2019-04-05T00:06:34.274Z,92.60
2019-04-05T00:09:06.742Z,99.47
2019-04-05T00:11:37.312Z,154.27
2019-04-05T00:14:09.547Z,98.70
2019-04-05T00:16:41.401Z,104.17
2019-04-05T00:19:12.040Z,101.53
2019-04-05T00:21:44.310Z,101.90
2019-04-05T00:24:14.731Z,102.27
2019-04-05T00:26:50.782Z,100.57
2019-04-05T00:29:21.335Z,101.27
2019-04-05T00:32:00.633Z,103.63
2019-04-05T00:34:31.063Z,102.07
2019-04-05T00:37:07.100Z,98.30
2019-04-05T00:39:37.725Z,100.43
2019-04-05T00:42:08.547Z,102.53
2019-04-05T00:44:38.965Z,102.10
2019-04-05T00:47:10.130Z,97.30
2019-04-05T00:49:40.803Z,147.23
2019-04-05T00:52:11.309Z,99.00
2019-04-05T00:54:41.784Z,100.00
2019-04-05T00:57:16.567Z,89.93
2019-04-05T00:59:48.220Z,96.13
2019-04-05T01:02:23.048Z,88.10
2019-04-05T01:04:53.856Z,88.87
2019-04-05T01:07:24.823Z,86.97
2019-04-05T01:09:55.342Z,134.53
2019-04-05T01:12:32.085Z,90.97
2019-04-05T01:15:40.860Z,89.27
2019-04-05T01:18:03.873Z,92.53
2019-04-05T01:20:42.551Z,86.47
2019-04-05T01:23:17.891Z,92.23
2019-04-05T01:26:04.205Z,92.03
2019-04-05T01:28:35.600Z,90.27
2019-04-05T01:31:07.123Z,94.80
2019-04-05T01:33:37.778Z,137.53
2019-04-05T01:36:08.246Z,97.23
2019-04-05T01:38:40.075Z,97.27
2019-04-05T01:41:10.869Z,90.50
2019-04-05T01:43:41.377Z,94.07
2019-04-05T01:46:15.769Z,93.03
2019-04-05T01:48:50.800Z,90.97
2019-04-05T01:51:25.351Z,98.73
2019-04-05T01:53:55.981Z,100.83
2019-04-05T01:56:26.466Z,95.57
2019-04-05T01:58:56.892Z,94.00
2019-04-05T02:01:27.876Z,99.90
2019-04-05T02:03:58.276Z,97.37
2019-04-05T02:06:30.407Z,93.63
2019-04-05T02:09:00.850Z,91.13
2019-04-05T02:11:31.727Z,91.83
2019-04-05T02:14:04.494Z,148.70
2019-04-05T02:16:34.996Z,96.63
2019-04-05T02:19:11.421Z,102.00
2019-04-05T02:21:50.545Z,98.33
2019-04-05T02:24:21.343Z,94.03
2019-04-05T02:26:51.927Z,90.23
2019-04-05T02:29:26.755Z,87.47
2019-04-05T02:31:58.623Z,91.70
2019-04-05T02:34:29.050Z,90.27
2019-04-05T02:37:03.802Z,97.37
2019-04-05T02:39:34.295Z,98.80
2019-04-05T02:42:05.668Z,100.13
2019-04-05T02:44:39.566Z,98.90
2019-04-05T02:47:13.224Z,88.33
2019-04-05T02:49:46.563Z,91.47
2019-04-05T02:52:21.703Z,102.23
2019-04-05T02:54:55.375Z,98.50
2019-04-05T02:57:27.736Z,138.37
2019-04-05T02:59:59.017Z,91.40
2019-04-05T03:02:30.227Z,95.93
2019-04-05T03:05:00.773Z,92.73
2019-04-05T03:07:31.626Z,91.07
2019-04-05T03:10:02.924Z,93.63
2019-04-05T03:12:36.950Z,100.97
2019-04-05T03:15:08.456Z,98.40
2019-04-05T03:17:39.874Z,98.47
2019-04-05T03:20:10.327Z,114.80
2019-04-05T03:22:40.997Z,99.10
2019-04-05T03:25:11.571Z,106.70
2019-04-05T03:27:41.976Z,115.67
2019-04-05T03:30:12.730Z,108.07
2019-04-05T03:32:45.894Z,118.90
2019-04-05T03:35:18.695Z,135.47
2019-04-05T03:37:53.058Z,206.47
2019-04-05T03:40:24.587Z,135.83
2019-04-05T03:43:04.692Z,136.53
2019-04-05T03:45:40.821Z,126.47
2019-04-05T03:48:11.554Z,140.03
2019-04-05T03:50:45.379Z,138.53
2019-04-05T03:53:16.446Z,132.47
2019-04-05T03:55:50.231Z,140.23
2019-04-05T03:58:21.837Z,140.70
2019-04-05T04:00:52.453Z,204.17
2019-04-05T04:03:24.702Z,128.57
2019-04-05T04:05:55.506Z,130.40
2019-04-05T04:08:26.228Z,137.90
2019-04-05T04:10:57.133Z,134.70
2019-04-05T04:13:30.797Z,131.47
2019-04-05T04:16:03.994Z,143.80
2019-04-05T04:18:38.057Z,142.87
2019-04-05T04:22:09.965Z,135.57
2019-04-05T04:24:42.827Z,137.30
2019-04-05T04:27:19.149Z,142.67
2019-04-05T04:29:49.766Z,143.47
2019-04-05T04:32:21.095Z,142.53
2019-04-05T04:35:03.601Z,136.40
2019-04-05T04:37:35.212Z,155.43
2019-04-05T04:40:13.616Z,151.97
2019-04-05T04:42:44.505Z,215.90
2019-04-05T04:45:15.489Z,135.47
2019-04-05T04:47:46.670Z,127.07
2019-04-05T04:50:19.309Z,149.70
2019-04-05T04:52:50.790Z,141.43
2019-04-05T04:55:21.952Z,146.67
2019-04-05T04:57:52.393Z,144.73
2019-04-05T05:00:23.059Z,140.63
2019-04-05T05:02:53.660Z,150.70
2019-04-05T05:05:24.162Z,148.97
2019-04-05T05:07:54.547Z,153.73
2019-04-05T05:10:25.198Z,156.40
2019-04-05T05:12:56.397Z,142.67
2019-04-05T05:15:27.371Z,158.63
2019-04-05T05:17:59.116Z,165.67
2019-04-05T05:20:30.067Z,153.27
2019-04-05T05:23:01.077Z,159.83
2019-04-05T05:25:31.991Z,237.60
2019-04-05T05:28:03.035Z,160.00
2019-04-05T05:30:34.093Z,175.43
2019-04-05T05:33:07.261Z,166.57
2019-04-05T05:35:37.612Z,154.20
2019-04-05T05:38:08.101Z,152.07
2019-04-05T05:40:38.983Z,146.60
2019-04-05T05:43:09.408Z,149.87
2019-04-05T05:45:40.054Z,238.43
2019-04-05T05:48:10.878Z,158.10
2019-04-05T05:50:41.649Z,157.40
2019-04-05T05:53:13.113Z,170.53
2019-04-05T05:55:43.906Z,169.43
2019-04-05T05:58:14.699Z,158.57
2019-04-05T06:00:45.424Z,158.17
2019-04-05T06:03:16.732Z,164.40
2019-04-05T06:05:47.235Z,236.20
2019-04-05T06:08:17.558Z,155.07
2019-04-05T06:10:47.982Z,153.40
2019-04-05T06:13:18.394Z,146.43
2019-04-05T06:15:48.744Z,135.97
2019-04-05T06:18:19.467Z,206.70
2019-04-05T06:20:49.854Z,149.10
2019-04-05T06:23:32.722Z,139.83
2019-04-05T06:25:52.346Z,142.10
2019-04-05T06:28:23.143Z,134.03
2019-04-05T06:30:53.446Z,198.53
2019-04-05T06:33:31.437Z,127.90
2019-04-05T06:35:55.992Z,132.70
2019-04-05T06:38:26.396Z,133.67
2019-04-05T06:40:56.818Z,188.00
2019-04-05T06:43:27.867Z,133.57
2019-04-05T06:45:58.292Z,137.50
2019-04-05T06:48:30.263Z,139.27
2019-04-05T06:51:00.687Z,138.47
2019-04-05T06:53:31.721Z,129.30
2019-04-05T06:56:02.529Z,126.00
2019-04-05T06:58:32.980Z,130.40
2019-04-05T07:01:03.423Z,125.47
2019-04-05T07:03:35.538Z,137.10
2019-04-05T07:06:06.035Z,131.07
2019-04-05T07:08:36.533Z,126.57
2019-04-05T07:11:07.026Z,141.40
2019-04-05T07:13:41.449Z,128.67
2019-04-05T07:16:12.085Z,189.53
2019-04-05T07:18:42.725Z,132.90
2019-04-05T07:21:13.261Z,133.43
2019-04-05T07:23:43.988Z,134.07
2019-04-05T07:26:14.499Z,132.03
2019-04-05T07:28:45.178Z,119.50
2019-04-05T07:31:16.114Z,168.40
2019-04-05T07:33:47.048Z,119.73
2019-04-05T07:36:17.871Z,118.33
2019-04-05T07:38:49.465Z,105.90
2019-04-05T07:41:21.950Z,111.87
2019-04-05T07:43:54.991Z,111.33
2019-04-05T07:46:25.388Z,110.00
2019-04-05T07:48:56.564Z,109.60
2019-04-05T07:51:26.931Z,104.30
2019-04-05T07:53:57.746Z,94.50
2019-04-05T07:56:28.178Z,97.33
2019-04-05T07:58:58.568Z,99.70
2019-04-05T08:01:29.145Z,91.47
2019-04-05T08:04:02.754Z,99.77
2019-04-05T08:06:36.707Z,98.23
2019-04-05T08:09:15.634Z,104.83
2019-04-05T08:11:50.008Z,94.30
2019-04-05T08:14:20.886Z,112.17
2019-04-05T08:16:53.314Z,164.77
2019-04-05T08:19:25.988Z,111.40
2019-04-05T08:21:56.388Z,105.57
2019-04-05T08:24:26.753Z,113.03
2019-04-05T08:26:59.879Z,115.87
2019-04-05T08:29:30.222Z,116.13
2019-04-05T08:32:13.600Z,115.27
2019-04-05T08:34:37.158Z,112.27
2019-04-05T08:37:07.938Z,118.03
2019-04-05T08:39:38.995Z,108.23
2019-04-05T08:42:10.829Z,113.67
2019-04-05T08:44:41.055Z,104.13
2019-04-05T08:47:10.911Z,102.70
2019-04-05T08:49:43.411Z,104.80
2019-04-05T08:52:13.240Z,111.53
2019-04-05T08:54:43.534Z,107.90
2019-04-05T08:57:13.446Z,113.37
2019-04-05T08:59:43.727Z,108.47
2019-04-05T09:02:13.573Z,108.03
2019-04-05T09:04:47.529Z,115.53
2019-04-05T09:07:22.840Z,109.27
2019-04-05T09:09:55.642Z,104.63
2019-04-05T09:12:34.753Z,106.97
2019-04-05T09:15:09.879Z,96.00
2019-04-05T09:17:42.124Z,94.30
2019-04-05T09:20:14.559Z,96.27
2019-04-05T09:22:49.314Z,91.57
2019-04-05T09:25:19.910Z,91.50
2019-04-05T09:27:52.826Z,89.80
2019-04-05T09:30:23.749Z,95.00
2019-04-05T09:32:54.440Z,90.57
2019-04-05T09:35:25.102Z,91.63
2019-04-05T09:37:55.489Z,91.47
2019-04-05T09:40:26.287Z,97.13
2019-04-05T09:42:56.690Z,91.50
2019-04-05T09:45:27.286Z,98.90
2019-04-05T09:47:57.745Z,106.43
2019-04-05T09:50:28.180Z,90.53
2019-04-05T09:52:58.523Z,91.97
2019-04-05T09:55:30.087Z,95.63
2019-04-05T09:58:33.349Z,86.87
2019-04-05T10:01:07.207Z,91.53
2019-04-05T10:03:42.584Z,93.20
2019-04-05T10:06:14.220Z,98.07
2019-04-05T10:08:45.787Z,85.77
2019-04-05T10:11:16.499Z,77.83
2019-04-05T10:13:46.888Z,88.03
2019-04-05T10:16:17.476Z,81.23
2019-04-05T10:18:47.827Z,88.93
2019-04-05T10:21:19.263Z,79.43
2019-04-05T10:23:49.606Z,90.07
2019-04-05T10:26:20.019Z,83.53
2019-04-05T10:28:50.368Z,81.87
2019-04-05T10:31:20.817Z,82.10
2019-04-05T10:33:52.132Z,89.43
2019-04-05T10:36:23.655Z,96.40
2019-04-05T10:38:54.022Z,86.20
2019-04-05T10:41:24.511Z,82.67
2019-04-05T10:43:55.103Z,86.53
2019-04-05T10:46:25.536Z,81.73
2019-04-05T10:48:58.195Z,82.77
2019-04-05T10:51:44.881Z,84.57
2019-04-05T10:54:21.950Z,88.73
2019-04-05T10:56:52.609Z,81.33
2019-04-05T10:59:23.029Z,81.67
2019-04-05T11:01:53.402Z,81.67
2019-04-05T11:04:23.933Z,87.07
2019-04-05T11:06:54.450Z,88.10
2019-04-05T11:09:25.044Z,79.13
2019-04-05T11:11:55.571Z,93.03
2019-04-05T11:14:25.936Z,85.50
2019-04-05T11:16:58.695Z,88.20
2019-04-05T11:19:30.273Z,81.33
2019-04-05T11:22:00.546Z,81.73
2019-04-05T11:24:30.935Z,81.60
2019-04-05T11:27:01.411Z,83.93
2019-04-05T11:29:33.986Z,88.63
2019-04-05T11:32:04.849Z,78.67
2019-04-05T11:34:35.201Z,85.07
2019-04-05T11:37:05.659Z,84.17
2019-04-05T11:39:38.304Z,80.13
2019-04-05T11:42:12.124Z,92.97
2019-04-05T11:44:45.288Z,77.03
2019-04-05T11:47:19.026Z,81.37
2019-04-05T11:49:51.136Z,83.57
2019-04-05T11:52:21.454Z,92.73
2019-04-05T11:54:52.599Z,87.97
2019-04-05T11:57:23.420Z,78.03
2019-04-05T11:59:55.568Z,85.70
2019-04-05T12:02:46.877Z,79.10
2019-04-05T12:05:20.369Z,112.97
2019-04-05T12:07:51.375Z,79.00
2019-04-05T12:10:22.382Z,76.50
2019-04-05T12:12:52.847Z,76.80
2019-04-05T12:15:29.087Z,79.50
2019-04-05T12:17:59.555Z,80.60
2019-04-05T12:20:32.787Z,73.93
2019-04-05T12:23:02.246Z,77.97
2019-04-05T12:25:33.749Z,71.20
2019-04-05T12:28:10.096Z,71.97
2019-04-05T12:30:38.057Z,74.97
2019-04-05T12:33:14.367Z,70.00
2019-04-05T12:35:44.781Z,81.87
2019-04-05T12:38:31.471Z,74.53
2019-04-05T12:41:04.878Z,74.70
2019-04-05T12:43:35.831Z,74.80
2019-04-05T12:46:06.655Z,77.00
2019-04-05T12:48:37.141Z,82.17
2019-04-05T12:51:07.684Z,83.53
2019-04-05T12:53:40.043Z,95.77
2019-04-05T12:56:14.833Z,89.07
2019-04-05T12:58:45.322Z,84.00
2019-04-05T13:01:15.691Z,90.67
2019-04-05T13:03:46.149Z,87.50
2019-04-05T13:06:19.824Z,96.10
2019-04-05T13:08:56.755Z,89.53
2019-04-05T13:11:29.263Z,89.07
2019-04-05T13:13:59.891Z,93.37
2019-04-05T13:16:30.302Z,86.77
2019-04-05T13:19:50.252Z,91.03
2019-04-05T13:22:22.570Z,96.63
2019-04-05T13:24:52.190Z,87.17
2019-04-05T13:27:22.532Z,91.53
2019-04-05T13:29:53.406Z,87.67
2019-04-05T13:32:24.066Z,84.73
2019-04-05T13:34:55.856Z,88.67
2019-04-05T13:37:28.530Z,85.57
2019-04-05T13:40:00.012Z,91.27
2019-04-05T13:42:31.947Z,82.37
2019-04-05T13:45:03.438Z,93.63
2019-04-05T13:47:42.061Z,82.30
2019-04-05T13:50:12.516Z,88.07
2019-04-05T13:52:42.920Z,89.07
2019-04-05T13:55:13.543Z,90.07
2019-04-05T13:57:44.071Z,84.43
2019-04-05T14:00:18.315Z,83.10
2019-04-05T14:02:50.742Z,82.57
2019-04-05T14:05:22.806Z,83.70
2019-04-05T14:08:09.144Z,83.90
2019-04-05T14:10:25.421Z,82.77
2019-04-05T14:12:55.875Z,86.43
2019-04-05T14:15:31.297Z,84.20
2019-04-05T14:18:00.935Z,87.00
2019-04-05T14:20:37.251Z,85.47
2019-04-05T14:23:08.817Z,82.23
2019-04-05T14:26:47.126Z,91.03
2019-04-05T14:29:18.878Z,91.00
2019-04-05T14:35:09.480Z,82.47
2019-04-05T14:37:46.688Z,90.53
2019-04-05T14:40:36.351Z,91.63
2019-04-05T14:43:06.980Z,92.23
2019-04-05T14:45:37.360Z,89.23
2019-04-05T14:48:14.195Z,89.37
2019-04-05T14:50:46.589Z,90.90
2019-04-05T14:53:19.197Z,88.20
2019-04-05T14:55:54.641Z,83.97
2019-04-05T14:58:25.819Z,79.23
2019-04-05T15:00:58.304Z,82.57
2019-04-05T15:03:28.828Z,89.03
2019-04-05T15:05:59.240Z,80.50
2019-04-05T15:08:29.663Z,81.23
2019-04-05T15:11:00.130Z,79.87
2019-04-05T15:13:32.441Z,82.90
2019-04-05T15:16:02.868Z,79.53
2019-04-05T15:18:33.294Z,82.57
2019-04-05T15:21:07.598Z,81.67
2019-04-05T15:23:41.264Z,86.40
2019-04-05T15:26:12.066Z,81.00
2019-04-05T15:28:42.517Z,75.90
2019-04-05T15:31:17.780Z,75.47
2019-04-05T15:33:49.034Z,80.83
2019-04-05T15:36:25.732Z,82.40
2019-04-05T15:39:03.848Z,77.47
2019-04-05T15:41:34.517Z,83.70
2019-04-05T15:44:11.060Z,80.03
2019-04-05T15:46:44.061Z,82.70
2019-04-05T15:49:14.599Z,81.87
2019-04-05T15:51:45.120Z,78.90
2019-04-05T15:54:15.945Z,76.70
2019-04-05T15:56:47.786Z,75.03
2019-04-05T15:59:21.921Z,75.97
2019-04-05T16:01:52.755Z,93.07
2019-04-05T16:04:26.471Z,78.23
2019-04-05T16:06:57.425Z,83.17
2019-04-05T16:09:27.907Z,76.80
2019-04-05T16:11:58.331Z,75.63
2019-04-05T16:14:33.906Z,74.03
2019-04-05T16:17:04.572Z,78.10
2019-04-05T16:19:35.395Z,77.97
2019-04-05T16:22:05.959Z,87.17
2019-04-05T16:24:42.729Z,75.40
2019-04-05T16:27:15.091Z,80.23
2019-04-05T16:29:48.767Z,77.57
2019-04-05T16:32:19.302Z,79.30
2019-04-05T16:34:49.891Z,79.07
2019-04-05T16:37:20.461Z,79.73
2019-04-05T16:39:53.318Z,78.80
2019-04-05T16:42:24.044Z,78.27
2019-04-05T16:44:54.848Z,76.87
2019-04-05T16:47:25.151Z,77.97
2019-04-05T16:49:55.481Z,87.00
2019-04-05T16:52:25.787Z,80.13
2019-04-05T16:55:03.524Z,75.20
2019-04-05T16:57:33.984Z,77.33
2019-04-05T17:00:05.099Z,81.90
2019-04-05T17:02:37.275Z,82.90
2019-04-05T17:05:08.230Z,83.90
2019-04-05T17:08:16.198Z,81.33
2019-04-05T17:10:51.609Z,78.93
2019-04-05T17:13:45.751Z,84.77
2019-04-05T17:16:30.392Z,81.67
2019-04-05T17:22:39.899Z,83.13
2019-04-05T17:25:26.090Z,80.70
2019-04-05T17:28:48.527Z,82.67
2019-04-05T17:31:49.302Z,78.20
2019-04-05T17:34:44.870Z,80.97
2019-04-05T17:37:20.652Z,83.80
2019-04-05T17:40:03.668Z,81.17
2019-04-05T17:42:35.023Z,83.83
2019-04-05T17:45:08.660Z,86.57
2019-04-05T17:47:45.102Z,86.63
2019-04-05T17:50:33.768Z,82.13
2019-04-05T17:53:16.148Z,130.10
2019-04-05T17:55:59.183Z,80.47
2019-04-05T17:58:32.404Z,84.67
2019-04-05T18:01:15.377Z,79.57
2019-04-05T18:03:46.326Z,86.20
2019-04-05T18:06:18.844Z,88.70
2019-04-05T18:08:52.403Z,84.17
2019-04-05T18:11:26.353Z,83.07
2019-04-05T18:13:59.396Z,84.53
2019-04-05T18:16:38.896Z,83.47
2019-04-05T18:19:14.793Z,90.97
2019-04-05T18:21:46.809Z,83.13
2019-04-05T18:24:17.337Z,82.57
2019-04-05T18:26:49.176Z,85.33
2019-04-05T18:29:22.870Z,89.93
2019-04-05T18:31:56.571Z,83.80
2019-04-05T18:34:27.221Z,86.67
2019-04-05T18:36:57.714Z,89.57
2019-04-05T18:39:43.087Z,85.63
2019-04-05T18:42:16.552Z,101.97
2019-04-05T18:44:48.991Z,85.47
2019-04-05T18:47:41.717Z,94.37
2019-04-05T18:50:14.515Z,102.53
2019-04-05T18:52:52.228Z,111.60
2019-04-05T18:55:26.102Z,105.80
2019-04-05T18:58:01.094Z,106.90
2019-04-05T19:00:31.829Z,105.23
2019-04-05T19:03:19.871Z,97.47
2019-04-05T19:05:51.888Z,93.53
2019-04-05T19:08:23.214Z,93.30
2019-04-05T19:10:57.783Z,100.37
2019-04-05T19:13:28.265Z,92.17
2019-04-05T19:16:01.494Z,87.20
2019-04-05T19:18:41.563Z,92.23
2019-04-05T19:21:09.767Z,84.77
2019-04-05T19:23:50.681Z,86.10
2019-04-05T19:26:15.418Z,92.70
2019-04-05T19:28:46.364Z,133.67
2019-04-05T19:50:27.399Z,96.13
2019-04-05T19:53:05.594Z,92.40
2019-04-05T19:55:45.689Z,90.93
2019-04-05T19:58:22.074Z,87.93
2019-04-05T20:01:21.448Z,101.27
2019-04-05T20:04:08.094Z,141.43
2019-04-05T20:07:27.006Z,99.73
2019-04-05T20:10:02.906Z,95.63
2019-04-05T20:12:43.582Z,94.90
2019-04-05T20:15:16.542Z,132.23
2019-04-05T20:17:46.787Z,100.53
2019-04-05T20:20:17.550Z,99.10
2019-04-05T20:22:51.345Z,97.33
2019-04-05T20:25:22.588Z,96.50
2019-04-05T20:27:57.288Z,137.13
2019-04-05T20:30:28.122Z,96.97
2019-04-05T20:32:58.596Z,94.17
2019-04-05T20:35:29.300Z,104.73
2019-04-05T20:37:59.639Z,152.23
2019-04-05T20:40:44.043Z,97.90
2019-04-05T20:43:15.234Z,98.07
2019-04-05T20:45:45.689Z,160.30
2019-04-05T20:48:17.157Z,99.07
2019-04-05T20:50:51.870Z,102.47
2019-04-05T20:53:25.477Z,102.87
2019-04-05T20:55:56.622Z,96.07
2019-04-05T20:58:31.235Z,97.10
2019-04-05T21:01:04.056Z,95.40
2019-04-05T21:03:35.253Z,94.53
2019-04-05T21:06:53.201Z,95.97
2019-04-05T21:09:40.913Z,140.10
2019-04-05T21:12:16.948Z,90.97
2019-04-05T21:14:49.568Z,100.27
2019-04-05T21:17:24.198Z,95.23
2019-04-05T21:20:16.148Z,88.73
2019-04-05T21:22:47.204Z,90.47
2019-04-05T21:25:17.814Z,97.03
2019-04-05T21:27:51.358Z,98.03
2019-04-05T21:30:22.264Z,146.43
2019-04-05T21:32:52.695Z,97.00
2019-04-05T21:35:35.006Z,97.13
2019-04-05T21:38:07.977Z,136.97
2019-04-05T21:40:38.675Z,91.17
2019-04-05T21:43:10.233Z,95.27
2019-04-05T21:45:42.427Z,95.53
2019-04-05T21:48:15.266Z,96.80
2019-04-05T21:50:46.407Z,99.43
2019-04-05T21:53:17.015Z,97.60
2019-04-05T21:55:47.451Z,138.70
2019-04-05T21:58:17.908Z,95.87
2019-04-05T22:00:50.531Z,93.00
2019-04-05T22:03:21.175Z,94.93
2019-04-05T22:05:51.781Z,145.17
2019-04-05T22:08:22.266Z,92.23
2019-04-05T22:10:53.098Z,87.10
2019-04-05T22:13:23.492Z,97.93
2019-04-05T22:15:53.897Z,87.80
2019-04-05T22:18:34.694Z,150.73
2019-04-05T22:21:09.539Z,94.03
2019-04-05T22:23:53.239Z,99.03
2019-04-05T22:26:24.736Z,88.77
2019-04-05T22:28:55.737Z,101.47
2019-04-05T22:31:48.542Z,95.90
2019-04-05T22:34:31.599Z,96.47
2019-04-05T22:37:08.348Z,96.90
2019-04-05T22:39:39.455Z,86.30
2019-04-05T22:42:10.004Z,132.83
2019-04-05T22:44:43.088Z,96.67
2019-04-05T22:47:15.865Z,85.77
2019-04-05T22:49:46.380Z,91.97
2019-04-05T22:52:17.364Z,92.77
2019-04-05T22:54:47.914Z,81.23
2019-04-05T22:57:18.494Z,89.33
2019-04-05T22:59:49.337Z,134.33
2019-04-05T23:02:19.762Z,90.77
2019-04-05T23:04:50.271Z,92.20
2019-04-05T23:07:22.034Z,93.13
2019-04-05T23:09:53.702Z,97.83
2019-04-05T23:12:24.168Z,96.73
2019-04-05T23:14:54.983Z,93.17
2019-04-05T23:17:25.364Z,86.63
2019-04-05T23:19:55.771Z,98.60
2019-04-05T23:22:26.231Z,90.70
2019-04-05T23:24:56.684Z,145.17
2019-04-05T23:27:28.094Z,91.43
2019-04-05T23:29:58.485Z,91.03
2019-04-05T23:32:29.332Z,90.33
2019-04-05T23:35:00.175Z,96.43
2019-04-05T23:37:30.699Z,87.00
2019-04-05T23:40:01.149Z,133.73
2019-04-05T23:42:31.571Z,86.47
2019-04-05T23:45:02.204Z,87.50
2019-04-05T23:47:32.608Z,93.20
2019-04-05T23:50:05.012Z,92.33
2019-04-05T23:52:35.652Z,127.77
2019-04-05T23:55:06.550Z,91.63
2019-04-05T23:57:37.337Z,86.53
